Brownsville, OR (97327)

3:04 AM PST on December 18, 2014 (GMT -0800)
Thompson's Mills | Change Station
CLOSE
Current Station
Personal Weather Station
Location: Shedd, OR
Elevation: 270 ft
Nearby Weather Stations
Active Advisory: Special Statement

Elev 270 ft 44.46 °N, 123.08 °W | Updated 4 minutes ago

Overcast
Overcast
43.2 °F
Feels Like 43 °F
N
0.0
Wind Variable Wind from West
Gusts 6.0 mph

Today
High -- | Low -- °F
--% Chance of Precip.
Yesterday
High -- | Low -- °F
Precip. -- in
7:43 AM 4:34 PM
Waning Crescent, 15% visible
Pressure 29.98 in
Visibility 0.2 miles
Clouds Overcast 200 ft
Windchill 43 °F
Dew Point 43 °F
Humidity 98%
Rainfall 0.00 in
Snow Depth Not available.
UV 1.3 out of 12
Pollen .50 out of 12
Air Quality Not available.
Flu Activity Not available.
METAR KCVO 181055Z AUTO 00000KT 1/4SM OVC002 06/04 A2998 RMK AO1

More Conditions Fewer Conditions

Pressure 29.98 in
Visibility 0.2 miles
Clouds Overcast 200 ft
Windchill 43 °F
Dew Point 43 °F
Humidity 98%
Rainfall 0.00 in
Snow Depth Not available.
UV 1.3 out of 12
Pollen .50 out of 12
Air Quality Not available.
Flu Activity Not available.
METAR KCVO 181055Z AUTO 00000KT 1/4SM OVC002 06/04 A2998 RMK AO1

More Conditions Fewer Conditions

10-Day Weather Forecast

Almanac

Astronomy

Dec. 18, 2014 Rise Set
Actual Time
Civil Twilight
Nautical Twilight
Astronomical Twilight
Moon
Length of Visible Light
Length of Day
Tomorrow will be .
, % of the Moon is Illuminated

Today's Extremes

State Highs State Lows

Community

WunderPhotos

Upload Photos

1,778,917 photos uploaded!

WunderBlogs® & News

Nearby

Air Quality

  Air Quality AQ Index Pollutant
Not available.

Snow Depth

Station Depth Elevation

Earthquake Activity

City Distance Mag. Time & Date
Minimum magnitude displayed is 2.5.

Coastal Water Temperatures

Place Temperature

Nearby Weather Stations